• Join FlightAware (Why Join?)
  • Login
  • US Flag 
12:25PM EDT


 

Airport Tracker/Info


-or-


 

Live Flight TrackerFlight Track Log ✈ N357DW ✈ 06-Jul-2013 ✈ KMCN - KRYY

Flight Track Log - Related Links

Times and Time Zones

All times are in EDT time to prevent confusion due to time zone crossing. See the N357DW flight status page for this flight to view local times or setup timezone preferences in your user account.

Time Position Orientation Groundspeed Altitude Reporting Facility
EDT Latitude Longitude Course Direction KTS MPH feet Rate Location/Type
01:23PM 32.7333 -83.6167 360° North 94 108 1,800  Level Atlanta TRACON
01:24PM 32.7500 -83.6167 360° North 100 115 2,400 540 Climbing Atlanta TRACON
01:25PM 32.7833 -83.6167 360° North 96 110 2,900 480 Climbing Atlanta TRACON
01:26PM 32.8000 -83.6167 360° North 98 113 3,400 420 Climbing Atlanta TRACON
01:26PM 32.8333 -83.6167 360° North 95 109 3,800 540 Climbing Atlanta TRACON
01:27PM 32.8714 -83.6500 North  Level FlightAware Approximate
01:28PM 32.8667 -83.6333 337° Northwest 102 117 4,500  Level Atlanta TRACON
01:29PM 32.8833 -83.6333 360° North 105 121 4,800 420 Climbing Atlanta TRACON
01:30PM 32.9500 -83.6333 360° North 105 121 5,800 360 Climbing Atlanta TRACON
01:31PM 32.9833 -83.6333 360° North 127 146 6,000 60 Climbing Atlanta TRACON
01:33PM 33.0167 -83.6500 337° Northwest 123 142 6,000  Level Atlanta TRACON
01:34PM 33.0500 -83.6500 360° North 124 143 6,000 240 Level Atlanta TRACON
01:35PM 33.0833 -83.6500 360° North 110 127 6,500 420 Climbing Atlanta TRACON
01:35PM 33.1000 -83.6500 360° North 105 121 6,900 360 Climbing Atlanta TRACON
01:37PM 33.1500 -83.6500 360° North 113 130 7,300 300 Climbing Atlanta TRACON
01:38PM 33.1833 -83.6500 360° North 116 133 7,600 300 Climbing Atlanta TRACON
01:39PM 33.2000 -83.6500 360° North 118 136 7,900 180 Climbing Atlanta TRACON
01:40PM 33.2333 -83.6500 360° North 121 139 8,000  Climbing Atlanta TRACON
01:41PM 33.2833 -83.6500 360° North 130 150 8,000  Level Atlanta TRACON
01:42PM 33.3167 -83.6500 360° North 124 143 8,000  Level Atlanta TRACON
01:44PM 33.3833 -83.6667 348° North 132 152 8,000  Level Atlanta TRACON
01:45PM 33.4167 -83.6833 337° Northwest 128 147 8,000  Level Atlanta TRACON
01:47PM 33.4667 -83.7333 320° Northwest 133 153 8,000  Level Atlanta TRACON
01:48PM 33.5000 -83.7667 320° Northwest 130 150 8,000  Level Atlanta TRACON
01:50PM 33.5667 -83.8000 337° Northwest 133 153 8,000  Level Atlanta TRACON
01:51PM 33.6000 -83.8167 337° Northwest 132 152 8,000  Level Atlanta TRACON
01:53PM 33.6667 -83.8333 348° North 132 152 8,000  Level Atlanta TRACON
01:54PM 33.7167 -83.8333 360° North 131 151 8,000  Level Atlanta TRACON
01:55PM 33.7500 -83.8333 360° North 133 153 8,000  Level Atlanta TRACON
01:56PM 33.7833 -83.8500 337° Northwest 133 153 8,000  Level Atlanta TRACON
01:57PM 33.8167 -83.8833 320° Northwest 134 154 8,000  Level Atlanta TRACON
01:58PM 33.8333 -83.9000 320° Northwest 125 144 8,000 -120 Level Atlanta TRACON
01:59PM 33.8667 -83.9167 337° Northwest 130 150 7,800 -600 Descending Atlanta TRACON
02:01PM 33.8833 -84.0000 284° West 123 142 6,200 -840 Descending Atlanta TRACON
02:02PM 33.9000 -84.0333 301° West 127 146 5,400 -780 Descending Atlanta TRACON
02:03PM 33.9167 -84.0667 301° West 134 154 4,700 -780 Descending Atlanta TRACON
02:04PM 33.9333 -84.1000 301° West 131 151 3,900 -600 Descending Atlanta TRACON
02:06PM 33.9833 -84.1667 312° West 116 133 3,000 -180 Descending Atlanta TRACON
02:08PM 34.0310 -84.2071 267° West  Level FlightAware Approximate
02:09PM 34.0167 -84.2667 267° West 130 150 3,100  Level Atlanta TRACON
02:09PM 34.0167 -84.3000 270° West 125 144 3,100  Level Atlanta TRACON
02:11PM 34.0167 -84.3500 270° West 118 136 3,100  Level Atlanta TRACON
02:11PM 34.0167 -84.3833 270° West 112 129 3,100  Level Atlanta TRACON
02:13PM 34.0167 -84.4167 270° West 105 121 3,100  Level Atlanta TRACON
02:14PM 34.0167 -84.4500 270° West 99 114 3,100 -300 Level Atlanta TRACON
02:15PM 34.0167 -84.5000 270° West 119 137 2,600 -540 Descending Atlanta TRACON
02:15PM 34.0167 -84.5333 270° West 106 122 2,100 -600 Descending Atlanta TRACON
02:17PM 34.0167 -84.5667 270° West 89 102 1,500 -600 Descending Atlanta TRACON